createdAt,value
2022-10-23T00:02:02.675Z,100636.94
2022-10-23T00:07:54.761Z,100620.25
2022-10-23T00:13:41.664Z,100610.22
2022-10-23T00:19:28.457Z,100614.13
2022-10-23T00:25:16.581Z,100630.31
2022-10-23T00:31:05.634Z,100620.59
2022-10-23T00:36:52.449Z,100596.06
2022-10-23T00:42:39.354Z,100584.38
2022-10-23T00:48:28.152Z,100576.25
2022-10-23T00:54:23.933Z,100576.09
2022-10-23T01:00:16.505Z,100575.66
2022-10-23T01:06:14.468Z,100560.81
2022-10-23T01:12:03.634Z,100568.13
2022-10-23T01:18:24.936Z,100550.13
2022-10-23T01:24:15.166Z,100546.00
2022-10-23T01:30:11.818Z,100531.72
2022-10-23T01:36:06.408Z,100525.22
2022-10-23T01:41:57.498Z,100519.66
2022-10-23T01:47:50.971Z,100505.28
2022-10-23T01:53:43.438Z,100483.19
2022-10-23T02:00:02.831Z,100472.28
2022-10-23T02:05:55.927Z,100478.25
2022-10-23T02:12:02.285Z,100478.66
2022-10-23T02:18:06.978Z,100474.44
2022-10-23T02:24:05.376Z,100470.19
2022-10-23T02:29:55.520Z,100442.13
2022-10-23T02:35:42.641Z,100414.88
2022-10-23T02:42:00.014Z,100409.69
2022-10-23T02:47:58.841Z,100401.13
2022-10-23T02:54:08.063Z,100382.47
2022-10-23T03:00:13.505Z,100357.06
2022-10-23T03:06:01.046Z,100339.41
2022-10-23T03:11:48.275Z,100326.63
2022-10-23T03:17:35.222Z,100312.22
2022-10-23T03:23:22.726Z,100295.63
2022-10-23T03:29:09.335Z,100283.13
2022-10-23T03:35:01.916Z,100282.84
2022-10-23T03:40:48.849Z,100275.03
2022-10-23T03:46:35.712Z,100266.16
2022-10-23T03:52:22.410Z,100239.41
2022-10-23T03:58:11.951Z,100232.66
2022-10-23T04:03:58.699Z,100219.97
2022-10-23T04:09:46.673Z,100212.25
2022-10-23T04:15:36.217Z,100193.72
2022-10-23T04:21:24.808Z,100176.88
2022-10-23T04:27:11.528Z,100166.50
2022-10-23T04:32:58.414Z,100143.16
2022-10-23T04:38:45.578Z,100152.38
2022-10-23T04:44:32.653Z,100130.94
2022-10-23T04:50:20.638Z,100110.88
2022-10-23T04:56:25.682Z,100108.00
2022-10-23T05:02:28.412Z,100088.28
2022-10-23T05:08:17.921Z,100068.44
2022-10-23T05:14:25.005Z,100059.28
2022-10-23T05:20:18.355Z,100028.69
2022-10-23T05:26:05.189Z,100027.00
2022-10-23T05:31:57.489Z,100025.22
2022-10-23T05:37:50.621Z,100026.56
2022-10-23T05:43:40.972Z,100035.78
2022-10-23T05:49:53.862Z,100027.78
2022-10-23T05:56:07.448Z,100017.72
2022-10-23T06:02:06.175Z,100006.44
2022-10-23T06:08:05.992Z,100020.56
2022-10-23T06:13:52.921Z,100036.50
2022-10-23T06:19:41.150Z,100044.53
2022-10-23T06:25:27.980Z,100042.31
2022-10-23T06:31:21.736Z,100026.72
2022-10-23T06:37:11.239Z,100018.91
2022-10-23T06:43:14.817Z,100022.19
2022-10-23T06:49:25.362Z,100000.31
2022-10-23T06:55:13.787Z,100000.72
2022-10-23T07:01:06.195Z,100022.97
2022-10-23T07:06:57.431Z,100016.31
2022-10-23T07:12:49.901Z,100018.97
2022-10-23T07:18:59.701Z,100004.38
2022-10-23T07:24:46.494Z,100024.56
2022-10-23T07:30:41.169Z,100011.75
2022-10-23T07:36:30.729Z,100000.31
2022-10-23T07:42:17.653Z,99989.69
2022-10-23T07:48:06.271Z,99972.63
2022-10-23T07:54:12.865Z,99982.00
2022-10-23T08:00:02.582Z,99996.69
2022-10-23T08:05:50.027Z,99994.50
2022-10-23T08:11:37.216Z,99980.41
2022-10-23T08:17:28.668Z,99990.16
2022-10-23T08:23:35.772Z,100001.28
2022-10-23T08:29:24.189Z,99974.56
2022-10-23T08:35:16.297Z,99964.75
2022-10-23T08:41:05.053Z,99965.31
2022-10-23T08:47:39.191Z,99966.84
2022-10-23T08:54:08.386Z,99970.97
2022-10-23T09:00:00.901Z,99977.78
2022-10-23T09:05:56.760Z,99962.50
2022-10-23T09:11:58.830Z,99952.16
2022-10-23T09:17:47.874Z,99933.09
2022-10-23T09:23:35.526Z,99957.94
2022-10-23T09:29:36.444Z,99949.91
2022-10-23T09:35:25.738Z,99924.03
2022-10-23T09:41:14.611Z,99936.22
2022-10-23T09:47:08.659Z,99916.22
2022-10-23T09:52:56.986Z,99905.28
2022-10-23T09:59:11.442Z,99881.22
2022-10-23T10:05:27.271Z,99875.81
2022-10-23T10:18:35.602Z,99891.16
2022-10-23T10:24:55.856Z,99882.06
2022-10-23T10:31:33.864Z,99888.28
2022-10-23T10:37:55.588Z,99903.94
2022-10-23T10:44:09.427Z,99897.44
2022-10-23T10:50:08.876Z,99893.53
2022-10-23T10:56:22.220Z,99874.16
2022-10-23T11:02:19.740Z,99821.88
2022-10-23T11:08:23.633Z,99809.38
2022-10-23T11:14:17.911Z,99826.94
2022-10-23T11:20:21.494Z,99823.56
2022-10-23T11:26:27.038Z,99823.72
2022-10-23T11:38:38.835Z,99832.22
2022-10-23T11:44:35.713Z,99806.41
2022-10-23T11:50:31.300Z,99776.09
2022-10-23T11:56:23.562Z,99753.94
2022-10-23T12:02:34.157Z,99747.34
2022-10-23T12:08:25.850Z,99723.56
2022-10-23T12:14:55.137Z,99716.00
2022-10-23T12:21:05.434Z,99705.00
2022-10-23T12:27:04.875Z,99677.31
2022-10-23T12:33:10.594Z,99688.59
2022-10-23T12:39:01.118Z,99668.31
2022-10-23T12:45:24.359Z,99656.22
2022-10-23T12:51:23.974Z,99651.31
2022-10-23T12:57:30.771Z,99646.03
2022-10-23T13:03:20.970Z,99643.06
2022-10-23T13:09:50.528Z,99621.19
2022-10-23T13:16:32.725Z,99601.56
2022-10-23T13:22:48.656Z,99604.53
2022-10-23T13:36:23.922Z,99584.09
2022-10-23T13:42:16.498Z,99580.66
2022-10-23T13:48:16.660Z,99555.47
2022-10-23T13:54:04.020Z,99551.34
2022-10-23T13:59:51.101Z,99524.19
2022-10-23T14:05:44.892Z,99519.59
2022-10-23T14:11:36.660Z,99507.44
2022-10-23T14:17:23.570Z,99502.38
2022-10-23T14:23:10.280Z,99500.06
2022-10-23T14:29:00.672Z,99462.25
2022-10-23T14:34:56.886Z,99450.50
2022-10-23T14:40:49.898Z,99442.91
2022-10-23T14:46:38.573Z,99466.03
2022-10-23T14:52:25.890Z,99470.47
2022-10-23T14:58:13.293Z,99459.53
2022-10-23T15:04:02.903Z,99462.47
2022-10-23T15:09:52.043Z,99460.75
2022-10-23T15:15:39.119Z,99451.97
2022-10-23T15:21:25.754Z,99433.25
2022-10-23T15:27:14.109Z,99448.69
2022-10-23T15:33:02.478Z,99437.72
2022-10-23T15:38:50.531Z,99409.28
2022-10-23T15:44:46.231Z,99380.00
2022-10-23T15:58:22.534Z,99376.16
2022-10-23T16:04:09.662Z,99500.16
2022-10-23T16:09:59.888Z,99513.47
2022-10-23T16:15:46.671Z,99517.09
2022-10-23T16:21:36.053Z,99508.47
2022-10-23T16:27:22.944Z,99480.94
2022-10-23T16:33:17.170Z,99448.72
2022-10-23T16:39:06.923Z,99410.94
2022-10-23T16:45:13.855Z,99397.94
2022-10-23T16:51:11.467Z,99433.28
2022-10-23T16:56:58.872Z,99422.94
2022-10-23T17:02:54.194Z,99431.63
2022-10-23T17:08:42.890Z,99440.75
2022-10-23T17:14:32.215Z,99460.03
2022-10-23T17:20:19.881Z,99455.59
2022-10-23T17:26:12.029Z,99455.66
2022-10-23T17:31:59.429Z,99460.25
2022-10-23T17:37:50.679Z,99459.66
2022-10-23T17:43:38.112Z,99464.72
2022-10-23T17:49:28.103Z,99471.38
2022-10-23T17:55:14.965Z,99479.28
2022-10-23T18:01:10.410Z,99479.34
2022-10-23T18:06:58.324Z,99471.56
2022-10-23T18:12:49.113Z,99462.38
2022-10-23T18:18:40.147Z,99463.31
2022-10-23T18:24:26.905Z,99462.41
2022-10-23T18:30:14.214Z,99458.75
2022-10-23T18:36:03.502Z,99450.34
2022-10-23T18:48:00.432Z,99447.22
2022-10-23T18:53:47.536Z,99442.78
2022-10-23T18:59:36.747Z,99436.25
2022-10-23T19:05:30.942Z,99434.47
2022-10-23T19:11:40.403Z,99421.91
2022-10-23T19:17:32.276Z,99414.00
2022-10-23T19:23:22.410Z,99400.28
2022-10-23T19:29:17.151Z,99402.38
2022-10-23T19:35:04.137Z,99392.81
2022-10-23T19:41:30.675Z,99394.28
2022-10-23T19:47:17.607Z,99395.59
2022-10-23T19:53:07.466Z,99394.16
2022-10-23T19:58:57.407Z,99405.25
2022-10-23T20:04:44.449Z,99385.47
2022-10-23T20:10:32.140Z,99376.59
2022-10-23T20:16:24.021Z,99378.19
2022-10-23T20:22:23.969Z,99351.19
2022-10-23T20:28:50.122Z,99385.16
2022-10-23T20:41:41.761Z,99356.31
2022-10-23T20:47:31.763Z,99293.88
2022-10-23T20:53:29.612Z,99320.22
2022-10-23T20:59:23.521Z,99313.53
2022-10-23T21:05:10.813Z,99322.19
2022-10-23T21:11:12.345Z,99285.75
2022-10-23T21:17:02.161Z,99302.00
2022-10-23T21:22:49.259Z,99318.28
2022-10-23T21:28:40.021Z,99328.78
2022-10-23T21:34:29.142Z,99304.91
2022-10-23T21:40:16.224Z,99305.63
2022-10-23T21:46:11.158Z,99307.03
2022-10-23T21:52:06.452Z,99307.22
2022-10-23T21:58:02.157Z,99302.09
2022-10-23T22:03:49.740Z,99294.00
2022-10-23T22:09:37.297Z,99282.75
2022-10-23T22:15:24.367Z,99280.94
2022-10-23T22:21:23.080Z,99275.16
2022-10-23T22:27:15.615Z,99260.13
2022-10-23T22:33:02.310Z,99255.38
2022-10-23T22:38:49.281Z,99256.78
2022-10-23T22:44:38.689Z,99250.38
2022-10-23T22:50:25.648Z,99244.53
2022-10-23T22:56:33.235Z,99234.13
2022-10-23T23:02:20.186Z,99230.88
2022-10-23T23:08:09.630Z,99231.72
2022-10-23T23:13:59.275Z,99215.72
2022-10-23T23:19:49.007Z,99202.91
2022-10-23T23:25:41.277Z,99210.06
2022-10-23T23:31:28.205Z,99199.47
2022-10-23T23:37:22.435Z,99202.03
2022-10-23T23:43:09.109Z,99184.75
